Time;durP1;ratioP1;P1;durP2;ratioP2;P2;SDS_P1;SDS_P2;PMS_P1;PMS_P2;Temp;Humidity;BMP_temperature;BMP_pressure;BME280_temperature;BME280_humidity;BME280_pressure;Samples;Min_cycle;Max_cycle;Signal;HPM_P1;HPM_P2
2022/04/13 00:00:57;;;;;;;5.45;3.75;;;;;;;;;;5031417;28;20049;-68
2022/04/13 00:03:24;;;;;;;5.50;3.55;;;;;;;;;;5019389;28;20053;-68
2022/04/13 00:05:50;;;;;;;5.43;3.90;;;;;;;;;;5028891;28;20054;-68
2022/04/13 00:08:16;;;;;;;5.70;3.90;;;;;;;;;;5033642;28;20049;-68
2022/04/13 00:10:43;;;;;;;5.38;3.83;;;;;;;;;;5028731;28;20092;-68
2022/04/13 00:13:09;;;;;;;5.32;3.70;;;;;;;;;;5022375;28;20041;-69
2022/04/13 00:15:37;;;;;;;6.43;4.10;;;;;;;;;;5028956;28;20189;-68
2022/04/13 00:18:07;;;;;;;7.07;4.13;;;;;;;;;;5009697;28;20057;-68
2022/04/13 00:20:33;;;;;;;4.80;3.50;;;;;;;;;;5032448;28;20124;-68
2022/04/13 00:22:59;;;;;;;6.60;3.92;;;;;;;;;;5033889;28;20045;-68
2022/04/13 00:25:25;;;;;;;4.88;4.00;;;;;;;;;;5033598;28;20045;-68
2022/04/13 00:27:52;;;;;;;5.70;3.90;;;;;;;;;;5032445;28;20061;-68
2022/04/13 00:30:18;;;;;;;4.97;3.50;;;;;;;;;;5032232;28;20064;-69
2022/04/13 00:32:44;;;;;;;5.93;4.00;;;;;;;;;;5033001;28;20128;-68
2022/04/13 00:35:10;;;;;;;5.93;3.80;;;;;;;;;;5033142;28;20201;-68
2022/04/13 00:37:37;;;;;;;4.90;3.58;;;;;;;;;;5017022;28;20075;-69
2022/04/13 00:40:04;;;;;;;5.80;3.60;;;;;;;;;;5019233;28;20037;-68
2022/04/13 00:42:30;;;;;;;5.72;3.63;;;;;;;;;;5014917;28;20491;-68
2022/04/13 00:44:57;;;;;;;6.10;3.80;;;;;;;;;;5027762;28;20073;-69
2022/04/13 00:47:23;;;;;;;5.50;3.70;;;;;;;;;;5033084;28;20096;-68
2022/04/13 00:49:49;;;;;;;4.93;3.72;;;;;;;;;;5032899;28;20045;-68
2022/04/13 00:52:16;;;;;;;4.72;3.10;;;;;;;;;;5018039;28;20394;-68
2022/04/13 00:54:45;;;;;;;4.68;3.58;;;;;;;;;;5020772;28;20049;-68
2022/04/13 00:57:12;;;;;;;5.22;3.97;;;;;;;;;;5013223;28;20057;-68
2022/04/13 00:59:39;;;;;;;4.40;3.60;;;;;;;;;;5023041;28;20056;-69
2022/04/13 01:02:07;;;;;;;7.47;4.20;;;;;;;;;;5032290;28;20508;-68
2022/04/13 01:04:34;;;;;;;4.85;3.60;;;;;;;;;;5032456;28;20450;-68
2022/04/13 01:07:01;;;;;;;5.07;3.42;;;;;;;;;;5032698;28;20103;-68
2022/04/13 01:09:27;;;;;;;5.70;4.00;;;;;;;;;;5032720;28;20045;-69
2022/04/13 01:11:53;;;;;;;6.35;4.20;;;;;;;;;;5023765;28;20132;-69
2022/04/13 01:14:19;;;;;;;5.57;4.18;;;;;;;;;;5031896;28;20049;-68
2022/04/13 01:16:45;;;;;;;5.03;3.88;;;;;;;;;;5032755;28;20034;-68
2022/04/13 01:19:16;;;;;;;4.97;3.80;;;;;;;;;;5025626;28;20045;-68
2022/04/13 01:21:45;;;;;;;5.22;3.78;;;;;;;;;;5013540;28;20045;-68
2022/04/13 01:24:12;;;;;;;7.05;4.38;;;;;;;;;;5013225;28;20050;-68
2022/04/13 01:26:38;;;;;;;5.55;3.83;;;;;;;;;;5023647;28;20042;-68
2022/04/13 01:29:05;;;;;;;5.68;3.90;;;;;;;;;;5033030;28;20107;-68
2022/04/13 01:31:32;;;;;;;5.95;3.90;;;;;;;;;;5033355;28;20091;-68
2022/04/13 01:33:59;;;;;;;5.45;4.18;;;;;;;;;;5032454;28;20045;-68
2022/04/13 01:36:25;;;;;;;5.18;3.83;;;;;;;;;;5014116;28;20049;-68
2022/04/13 01:38:52;;;;;;;4.93;3.80;;;;;;;;;;5024713;28;20038;-68
2022/04/13 01:41:18;;;;;;;5.85;4.10;;;;;;;;;;5025810;28;20034;-68
2022/04/13 01:43:44;;;;;;;4.55;3.70;;;;;;;;;;5031976;28;20038;-68
2022/04/13 01:46:10;;;;;;;5.90;4.20;;;;;;;;;;5032292;28;20041;-68
2022/04/13 01:48:36;;;;;;;6.35;4.18;;;;;;;;;;5030299;28;20064;-68
2022/04/13 01:51:02;;;;;;;4.90;4.10;;;;;;;;;;5014490;28;20409;-68
2022/04/13 01:53:28;;;;;;;6.35;3.88;;;;;;;;;;5028756;28;20038;-68
2022/04/13 01:55:54;;;;;;;5.28;4.13;;;;;;;;;;5026247;28;20472;-68
2022/04/13 01:58:21;;;;;;;6.13;3.90;;;;;;;;;;5014734;28;20576;-68
2022/04/13 02:00:51;;;;;;;5.63;3.97;;;;;;;;;;5018569;28;20050;-69
2022/04/13 02:03:18;;;;;;;6.30;4.15;;;;;;;;;;5028925;28;20057;-68
2022/04/13 02:05:44;;;;;;;5.28;3.72;;;;;;;;;;5012954;28;20081;-68
2022/04/13 02:08:10;;;;;;;5.20;3.80;;;;;;;;;;5013288;28;20456;-69
2022/04/13 02:10:36;;;;;;;5.32;4.22;;;;;;;;;;5030139;28;20092;-68
2022/04/13 02:13:02;;;;;;;5.38;4.05;;;;;;;;;;5021291;28;20038;-68
2022/04/13 02:15:28;;;;;;;4.88;4.10;;;;;;;;;;5028149;28;20378;-68
2022/04/13 02:17:54;;;;;;;5.88;3.95;;;;;;;;;;5025908;28;20037;-68
2022/04/13 02:20:20;;;;;;;5.50;4.05;;;;;;;;;;5029729;28;20045;-68
2022/04/13 02:22:46;;;;;;;5.30;3.80;;;;;;;;;;5028197;28;20038;-69
2022/04/13 02:25:12;;;;;;;5.18;3.67;;;;;;;;;;5027985;28;20033;-68
2022/04/13 02:27:38;;;;;;;5.13;4.15;;;;;;;;;;5028439;28;20077;-68
2022/04/13 02:30:04;;;;;;;5.80;3.63;;;;;;;;;;5030820;28;20099;-68
2022/04/13 02:32:31;;;;;;;6.40;4.30;;;;;;;;;;5035589;28;20041;-68
2022/04/13 02:34:57;;;;;;;5.53;3.90;;;;;;;;;;5035286;28;20093;-68
2022/04/13 02:37:23;;;;;;;4.82;4.00;;;;;;;;;;5034375;28;20095;-68
2022/04/13 02:39:49;;;;;;;5.45;3.88;;;;;;;;;;5018632;28;20041;-68
2022/04/13 02:42:15;;;;;;;5.00;3.65;;;;;;;;;;5026012;28;20048;-68
2022/04/13 02:44:44;;;;;;;4.97;3.78;;;;;;;;;;5026193;28;20045;-68
2022/04/13 02:47:11;;;;;;;4.43;3.72;;;;;;;;;;5032240;28;20120;-68
2022/04/13 02:49:37;;;;;;;5.63;3.90;;;;;;;;;;5035026;28;20455;-68
2022/04/13 02:52:04;;;;;;;6.43;4.13;;;;;;;;;;5034660;28;20041;-68
2022/04/13 02:54:30;;;;;;;4.80;3.65;;;;;;;;;;5035147;28;20041;-68
2022/04/13 02:56:56;;;;;;;5.88;3.83;;;;;;;;;;5034936;28;20450;-68
2022/04/13 02:59:22;;;;;;;5.40;4.20;;;;;;;;;;5029642;28;20081;-68
2022/04/13 03:01:49;;;;;;;5.40;4.03;;;;;;;;;;5028347;28;20075;-68
2022/04/13 03:04:16;;;;;;;5.35;4.13;;;;;;;;;;5034232;28;20099;-68
2022/04/13 03:06:42;;;;;;;5.40;3.60;;;;;;;;;;5035176;28;20041;-69
2022/04/13 03:09:08;;;;;;;4.80;3.70;;;;;;;;;;5032432;28;20120;-68
2022/04/13 03:11:34;;;;;;;4.43;3.42;;;;;;;;;;5027102;28;20038;-68
2022/04/13 03:14:00;;;;;;;4.93;3.90;;;;;;;;;;5035126;28;20046;-68
2022/04/13 03:16:26;;;;;;;5.55;3.88;;;;;;;;;;5017363;28;20041;-68
2022/04/13 03:18:52;;;;;;;5.60;3.80;;;;;;;;;;5035019;28;20090;-68
2022/04/13 03:21:18;;;;;;;5.13;3.97;;;;;;;;;;5034664;28;20463;-68
2022/04/13 03:23:44;;;;;;;4.25;3.45;;;;;;;;;;5034907;28;20037;-68
2022/04/13 03:26:10;;;;;;;5.25;3.85;;;;;;;;;;5033419;28;20447;-68
2022/04/13 03:28:36;;;;;;;5.38;3.83;;;;;;;;;;5034481;28;20499;-68
2022/04/13 03:31:02;;;;;;;5.25;3.78;;;;;;;;;;5034404;28;20041;-68
2022/04/13 03:33:28;;;;;;;5.68;3.88;;;;;;;;;;5034899;28;20091;-68
2022/04/13 03:35:54;;;;;;;5.43;3.60;;;;;;;;;;5033969;28;20049;-68
2022/04/13 03:38:20;;;;;;;4.65;3.53;;;;;;;;;;5029280;28;20142;-68
2022/04/13 03:40:46;;;;;;;5.35;3.83;;;;;;;;;;5022371;28;20045;-68
2022/04/13 03:43:12;;;;;;;4.65;3.50;;;;;;;;;;5033394;28;20042;-68
2022/04/13 03:45:38;;;;;;;5.00;3.50;;;;;;;;;;5034034;28;20042;-68
2022/04/13 03:48:04;;;;;;;4.68;3.38;;;;;;;;;;5023241;28;20374;-68
2022/04/13 03:50:30;;;;;;;5.28;3.33;;;;;;;;;;5024021;28;20092;-68
2022/04/13 03:52:56;;;;;;;5.00;3.72;;;;;;;;;;5031396;28;20069;-68
2022/04/13 03:55:22;;;;;;;4.68;3.33;;;;;;;;;;5029104;28;20502;-68
2022/04/13 03:57:51;;;;;;;5.05;3.53;;;;;;;;;;5023920;28;20054;-68
2022/04/13 04:00:18;;;;;;;5.15;3.80;;;;;;;;;;5032708;28;20049;-68
2022/04/13 04:02:44;;;;;;;4.97;3.53;;;;;;;;;;5030300;28;20049;-68
2022/04/13 04:05:11;;;;;;;4.45;3.75;;;;;;;;;;5025316;28;20077;-68
2022/04/13 04:07:37;;;;;;;5.32;3.60;;;;;;;;;;5032590;28;20057;-68
2022/04/13 04:10:04;;;;;;;5.18;3.40;;;;;;;;;;5016431;28;20041;-68
2022/04/13 04:12:30;;;;;;;5.18;3.55;;;;;;;;;;5026773;28;20099;-68
2022/04/13 04:15:02;;;;;;;6.18;3.50;;;;;;;;;;5033030;28;20050;-68
2022/04/13 04:17:28;;;;;;;4.40;3.47;;;;;;;;;;5016218;28;20058;-68
2022/04/13 04:19:54;;;;;;;5.68;4.05;;;;;;;;;;5021317;28;20124;-68
2022/04/13 04:22:23;;;;;;;4.80;3.58;;;;;;;;;;5024944;28;20042;-68
2022/04/13 04:24:49;;;;;;;4.43;3.63;;;;;;;;;;5016245;28;20045;-68
2022/04/13 04:27:15;;;;;;;4.63;3.38;;;;;;;;;;5032683;28;20190;-68
2022/04/13 04:29:41;;;;;;;4.20;3.17;;;;;;;;;;5027995;28;20124;-68
2022/04/13 04:32:07;;;;;;;5.90;3.85;;;;;;;;;;5024851;28;20128;-69
2022/04/13 04:34:34;;;;;;;5.05;3.67;;;;;;;;;;5012322;28;20045;-68
2022/04/13 04:37:00;;;;;;;6.60;3.90;;;;;;;;;;5029050;28;20492;-68
2022/04/13 04:39:26;;;;;;;5.25;3.95;;;;;;;;;;5032065;28;20049;-68
2022/04/13 04:41:53;;;;;;;5.50;4.03;;;;;;;;;;5031925;28;20044;-68
2022/04/13 04:44:19;;;;;;;5.28;4.38;;;;;;;;;;5027637;28;20041;-68
2022/04/13 04:46:45;;;;;;;7.57;4.30;;;;;;;;;;5014932;28;20144;-68
2022/04/13 04:49:11;;;;;;;7.00;4.90;;;;;;;;;;5013544;28;20156;-68
2022/04/13 04:51:37;;;;;;;6.03;4.90;;;;;;;;;;5028507;28;20495;-68
2022/04/13 04:54:03;;;;;;;6.95;5.00;;;;;;;;;;5032226;28;20560;-68
2022/04/13 04:56:30;;;;;;;7.78;7.07;;;;;;;;;;5031086;28;20041;-68
2022/04/13 04:58:56;;;;;;;8.18;6.45;;;;;;;;;;5031739;28;20034;-68
2022/04/13 05:01:22;;;;;;;11.80;10.70;;;;;;;;;;5015028;28;20103;-68
2022/04/13 05:03:51;;;;;;;8.48;7.53;;;;;;;;;;5032612;28;20485;-68
2022/04/13 05:06:18;;;;;;;16.63;15.27;;;;;;;;;;5032666;28;20045;-68
2022/04/13 05:08:44;;;;;;;12.90;11.80;;;;;;;;;;5033360;28;20477;-69
2022/04/13 05:11:10;;;;;;;11.75;10.80;;;;;;;;;;5031415;28;20038;-68
2022/04/13 05:13:36;;;;;;;24.02;21.90;;;;;;;;;;5031334;28;20071;-68
2022/04/13 05:16:02;;;;;;;13.52;12.32;;;;;;;;;;5033051;28;20053;-68
2022/04/13 05:18:28;;;;;;;11.88;10.88;;;;;;;;;;5032590;28;20137;-68
2022/04/13 05:20:54;;;;;;;11.93;10.93;;;;;;;;;;5031625;28;20149;-68
2022/04/13 05:23:20;;;;;;;11.85;10.80;;;;;;;;;;5015031;28;20041;-69
2022/04/13 05:25:46;;;;;;;11.57;10.38;;;;;;;;;;5026924;28;20037;-68
2022/04/13 05:28:13;;;;;;;11.00;10.00;;;;;;;;;;5032611;28;20052;-68
2022/04/13 05:30:39;;;;;;;10.15;9.32;;;;;;;;;;5032781;28;20134;-68
2022/04/13 05:33:06;;;;;;;10.02;9.02;;;;;;;;;;5033000;28;20045;-68
2022/04/13 05:35:33;;;;;;;9.80;8.90;;;;;;;;;;5032005;28;20126;-68
2022/04/13 05:38:02;;;;;;;10.15;9.25;;;;;;;;;;5020537;28;20052;-68
2022/04/13 05:40:28;;;;;;;9.30;8.02;;;;;;;;;;5019557;28;20120;-68
2022/04/13 05:42:54;;;;;;;8.88;7.97;;;;;;;;;;5030015;28;20095;-68
2022/04/13 05:45:20;;;;;;;8.68;7.82;;;;;;;;;;5012904;28;20084;-67
2022/04/13 05:47:46;;;;;;;8.55;7.65;;;;;;;;;;5019521;28;20108;-68
2022/04/13 05:50:13;;;;;;;8.20;7.38;;;;;;;;;;5015128;28;20049;-69
2022/04/13 05:52:39;;;;;;;9.15;6.60;;;;;;;;;;5018528;28;20049;-68
2022/04/13 05:55:06;;;;;;;6.82;6.13;;;;;;;;;;5032377;28;20045;-68
2022/04/13 05:57:32;;;;;;;6.97;6.28;;;;;;;;;;5011285;28;20140;-67
2022/04/13 05:59:58;;;;;;;6.53;5.93;;;;;;;;;;5023126;28;20129;-67
2022/04/13 06:02:24;;;;;;;8.13;6.00;;;;;;;;;;5033931;28;20045;-68
2022/04/13 06:04:50;;;;;;;8.13;5.80;;;;;;;;;;5026495;28;20046;-68
2022/04/13 06:07:16;;;;;;;7.65;5.30;;;;;;;;;;5031667;28;20095;-67
2022/04/13 06:09:42;;;;;;;8.23;6.18;;;;;;;;;;5029445;28;20135;-67
2022/04/13 06:12:08;;;;;;;8.63;5.60;;;;;;;;;;5035667;28;20091;-67
2022/04/13 06:14:34;;;;;;;9.90;5.22;;;;;;;;;;5018463;28;20045;-67
2022/04/13 06:17:00;;;;;;;10.00;5.50;;;;;;;;;;5027171;28;20060;-67
2022/04/13 06:19:26;;;;;;;8.88;5.10;;;;;;;;;;5021064;28;20124;-65
2022/04/13 06:21:52;;;;;;;5.40;4.90;;;;;;;;;;5018948;28;20076;-65
2022/04/13 06:24:18;;;;;;;9.13;4.78;;;;;;;;;;5022954;28;20473;-67
2022/04/13 06:26:44;;;;;;;8.25;4.82;;;;;;;;;;5017764;28;20044;-64
2022/04/13 06:29:11;;;;;;;9.18;4.60;;;;;;;;;;5036083;28;20405;-66
2022/04/13 06:31:37;;;;;;;8.05;4.07;;;;;;;;;;5035911;28;20045;-65
2022/04/13 06:34:03;;;;;;;8.57;4.40;;;;;;;;;;5034747;28;20046;-66
2022/04/13 06:36:29;;;;;;;9.60;4.47;;;;;;;;;;5027897;28;20049;-66
2022/04/13 06:38:55;;;;;;;10.25;5.05;;;;;;;;;;5027862;28;20133;-69
2022/04/13 06:41:21;;;;;;;13.02;5.30;;;;;;;;;;5030442;28;20494;-66
2022/04/13 06:43:48;;;;;;;13.60;4.90;;;;;;;;;;5018084;28;20444;-68
2022/04/13 06:46:14;;;;;;;12.13;5.55;;;;;;;;;;5034039;28;20079;-66
2022/04/13 06:48:40;;;;;;;13.50;5.68;;;;;;;;;;5034708;28;20041;-67
2022/04/13 06:51:06;;;;;;;11.32;5.60;;;;;;;;;;5034258;28;20046;-67
2022/04/13 06:53:32;;;;;;;12.77;5.45;;;;;;;;;;5033881;28;20059;-68
2022/04/13 06:55:58;;;;;;;12.73;5.43;;;;;;;;;;5034211;28;20053;-68
2022/04/13 06:58:24;;;;;;;15.68;5.45;;;;;;;;;;5022508;28;20054;-68
2022/04/13 07:00:50;;;;;;;24.60;6.32;;;;;;;;;;5027952;28;20055;-68
2022/04/13 07:03:16;;;;;;;25.98;7.07;;;;;;;;;;5034525;28;20515;-68
2022/04/13 07:05:42;;;;;;;55.95;9.40;;;;;;;;;;5025808;28;20076;-71
2022/04/13 07:08:08;;;;;;;71.20;11.13;;;;;;;;;;5030255;28;20038;-72
2022/04/13 07:10:35;;;;;;;55.30;9.98;;;;;;;;;;5020710;28;20113;-72
2022/04/13 07:13:01;;;;;;;39.78;9.73;;;;;;;;;;5034577;28;20045;-71
2022/04/13 07:15:28;;;;;;;34.70;8.50;;;;;;;;;;5034882;28;20045;-71
2022/04/13 07:17:54;;;;;;;37.95;8.48;;;;;;;;;;5034805;28;20046;-71
2022/04/13 07:20:20;;;;;;;48.42;8.95;;;;;;;;;;5036879;28;20047;-70
2022/04/13 07:22:47;;;;;;;24.90;7.10;;;;;;;;;;5034425;28;20046;-70
2022/04/13 07:25:13;;;;;;;32.38;7.00;;;;;;;;;;5015429;28;20037;-69
2022/04/13 07:27:39;;;;;;;27.77;6.65;;;;;;;;;;5030811;28;20357;-69
2022/04/13 07:30:06;;;;;;;22.65;6.68;;;;;;;;;;5034407;28;20045;-69
2022/04/13 07:32:32;;;;;;;29.95;6.50;;;;;;;;;;5029619;28;20120;-69
2022/04/13 07:35:03;;;;;;;23.50;7.25;;;;;;;;;;5026950;28;20045;-70
2022/04/13 07:37:29;;;;;;;23.83;6.40;;;;;;;;;;5024088;28;20065;-70
2022/04/13 07:39:55;;;;;;;24.33;6.40;;;;;;;;;;5021492;28;20053;-69
2022/04/13 07:42:25;;;;;;;22.33;6.00;;;;;;;;;;5024669;28;20539;-69
2022/04/13 07:44:51;;;;;;;17.52;5.57;;;;;;;;;;5030486;28;20056;-70
2022/04/13 07:47:21;;;;;;;22.50;5.70;;;;;;;;;;5032289;28;20542;-70
2022/04/13 07:49:50;;;;;;;18.30;5.50;;;;;;;;;;5019608;28;20077;-69
2022/04/13 07:52:16;;;;;;;21.23;5.68;;;;;;;;;;5020247;28;20354;-70
2022/04/13 07:54:44;;;;;;;21.35;5.40;;;;;;;;;;5020478;28;20124;-74
2022/04/13 07:57:10;;;;;;;21.20;5.38;;;;;;;;;;5034412;28;20132;-71
2022/04/13 07:59:36;;;;;;;20.40;6.07;;;;;;;;;;5018635;28;20128;-70
2022/04/13 08:02:04;;;;;;;24.13;5.75;;;;;;;;;;5016165;28;20093;-72
2022/04/13 08:04:30;;;;;;;15.52;5.28;;;;;;;;;;5037314;28;20128;-71
2022/04/13 08:06:56;;;;;;;22.77;5.63;;;;;;;;;;5025568;28;20041;-71
2022/04/13 08:09:23;;;;;;;23.85;7.55;;;;;;;;;;5033921;28;20136;-71
2022/04/13 08:11:52;;;;;;;23.00;6.50;;;;;;;;;;5025934;28;20046;-73
2022/04/13 08:14:19;;;;;;;23.52;7.00;;;;;;;;;;5033570;28;20045;-72
2022/04/13 08:16:45;;;;;;;16.70;7.00;;;;;;;;;;5022642;28;20056;-72
2022/04/13 08:19:11;;;;;;;20.15;6.63;;;;;;;;;;4996497;28;20128;-72
2022/04/13 08:21:38;;;;;;;18.42;7.60;;;;;;;;;;5014390;28;20045;-68
2022/04/13 08:24:04;;;;;;;22.38;7.68;;;;;;;;;;5033791;28;20363;-71
2022/04/13 08:26:30;;;;;;;25.50;7.68;;;;;;;;;;5031491;28;20405;-70
2022/04/13 08:28:56;;;;;;;37.38;8.45;;;;;;;;;;5028202;28;20484;-70
2022/04/13 08:31:22;;;;;;;25.55;7.90;;;;;;;;;;5017661;28;20053;-70
2022/04/13 08:33:48;;;;;;;21.50;8.13;;;;;;;;;;5032938;28;20558;-70
2022/04/13 08:36:14;;;;;;;18.48;7.90;;;;;;;;;;5030237;28;20037;-70
2022/04/13 08:38:41;;;;;;;29.45;8.57;;;;;;;;;;5033493;28;20165;-70
2022/04/13 08:41:16;;;;;;;26.63;8.10;;;;;;;;;;5019031;28;20077;-70
2022/04/13 08:43:48;;;;;;;25.73;8.82;;;;;;;;;;5014424;28;20048;-70
2022/04/13 08:46:26;;;;;;;24.40;8.18;;;;;;;;;;5018482;28;20408;-70
2022/04/13 08:48:55;;;;;;;24.42;7.45;;;;;;;;;;5033627;28;20045;-70
2022/04/13 08:51:22;;;;;;;21.83;7.22;;;;;;;;;;5033061;28;20049;-69
2022/04/13 08:53:49;;;;;;;22.38;7.65;;;;;;;;;;5032272;28;20508;-70
2022/04/13 08:56:17;;;;;;;20.38;6.75;;;;;;;;;;5032759;28;20041;-69
2022/04/13 08:58:50;;;;;;;20.38;6.95;;;;;;;;;;5032323;28;20053;-69
2022/04/13 09:01:30;;;;;;;15.85;6.55;;;;;;;;;;5031173;28;20112;-69
2022/04/13 09:03:58;;;;;;;21.95;7.10;;;;;;;;;;5028653;28;20131;-69
2022/04/13 09:06:26;;;;;;;17.08;7.43;;;;;;;;;;5029800;28;20041;-69
2022/04/13 09:09:01;;;;;;;15.30;6.95;;;;;;;;;;5033233;28;20049;-69
2022/04/13 09:11:28;;;;;;;22.08;8.00;;;;;;;;;;5030082;28;20400;-69
2022/04/13 09:13:54;;;;;;;19.27;7.68;;;;;;;;;;5015010;28;20125;-69
2022/04/13 09:16:20;;;;;;;17.67;6.40;;;;;;;;;;5027368;28;20095;-68
2022/04/13 09:18:47;;;;;;;17.73;6.20;;;;;;;;;;5015358;28;20053;-69
2022/04/13 09:21:13;;;;;;;16.83;6.57;;;;;;;;;;5025473;28;20041;-69
2022/04/13 09:23:40;;;;;;;21.98;6.68;;;;;;;;;;5032332;28;20045;-69
2022/04/13 09:26:08;;;;;;;15.45;6.45;;;;;;;;;;5032999;28;20169;-69
2022/04/13 09:28:36;;;;;;;14.45;6.10;;;;;;;;;;5032998;28;20096;-69
2022/04/13 09:31:03;;;;;;;12.95;6.13;;;;;;;;;;5032203;28;20051;-69
2022/04/13 09:33:29;;;;;;;18.42;7.15;;;;;;;;;;5032724;28;20566;-69
2022/04/13 09:35:55;;;;;;;18.55;7.38;;;;;;;;;;5026840;28;20042;-69
2022/04/13 09:38:21;;;;;;;17.58;6.78;;;;;;;;;;5012806;28;20103;-69
2022/04/13 09:40:49;;;;;;;13.32;5.38;;;;;;;;;;5025793;28;20096;-69
2022/04/13 09:43:16;;;;;;;14.98;6.28;;;;;;;;;;4995281;28;20050;-69
2022/04/13 09:45:44;;;;;;;10.50;5.07;;;;;;;;;;5028752;28;20359;-69
2022/04/13 09:48:11;;;;;;;15.05;4.82;;;;;;;;;;5030956;28;20103;-69
2022/04/13 09:50:40;;;;;;;13.20;5.22;;;;;;;;;;5012801;28;20049;-69
2022/04/13 09:53:07;;;;;;;11.48;7.28;;;;;;;;;;5022127;28;20052;-69
2022/04/13 09:55:34;;;;;;;11.80;6.70;;;;;;;;;;5030671;28;20087;-69
2022/04/13 09:58:04;;;;;;;11.80;6.75;;;;;;;;;;5013167;28;20104;-69
2022/04/13 10:00:30;;;;;;;14.00;7.45;;;;;;;;;;5014312;28;20064;-69
2022/04/13 10:03:06;;;;;;;16.02;7.43;;;;;;;;;;5006954;28;20045;-71
2022/04/13 10:05:32;;;;;;;;;;;;;;;;;;5016909;28;20452;-70
2022/04/13 10:08:01;;;;;;;11.82;7.63;;;;;;;;;;5026709;28;20638;-70
2022/04/13 10:10:28;;;;;;;16.70;8.88;;;;;;;;;;5019552;28;20060;-71
2022/04/13 10:12:55;;;;;;;27.67;14.50;;;;;;;;;;5029623;28;20053;-71
2022/04/13 10:15:21;;;;;;;23.90;14.25;;;;;;;;;;5019388;28;20377;-68
2022/04/13 10:17:47;;;;;;;26.77;15.85;;;;;;;;;;5015162;28;20037;-66
2022/04/13 10:20:13;;;;;;;26.63;15.43;;;;;;;;;;5020887;28;20034;-69
2022/04/13 10:22:58;;;;;;;24.13;13.85;;;;;;;;;;5017892;28;20085;-69
2022/04/13 10:25:26;;;;;;;22.10;12.90;;;;;;;;;;5016616;28;20042;-67
2022/04/13 10:27:53;;;;;;;22.38;12.65;;;;;;;;;;5017239;28;20042;-69
2022/04/13 10:30:30;;;;;;;22.25;12.13;;;;;;;;;;5021928;28;20493;-69
2022/04/13 10:33:04;;;;;;;19.55;10.95;;;;;;;;;;5030817;28;20179;-68
2022/04/13 10:35:31;;;;;;;20.42;10.38;;;;;;;;;;5027489;28;20065;-68
2022/04/13 10:37:57;;;;;;;20.05;10.52;;;;;;;;;;5030379;28;20456;-67
2022/04/13 10:40:24;;;;;;;20.98;10.27;;;;;;;;;;5031018;28;20048;-66
2022/04/13 10:42:51;;;;;;;18.42;9.32;;;;;;;;;;5025458;28;20108;-66
2022/04/13 10:45:17;;;;;;;16.38;8.80;;;;;;;;;;5023078;28;20125;-67
2022/04/13 10:47:43;;;;;;;16.95;8.43;;;;;;;;;;5033774;28;20149;-69
2022/04/13 10:50:13;;;;;;;15.23;8.15;;;;;;;;;;5028406;28;20547;-70
2022/04/13 10:52:51;;;;;;;14.93;7.63;;;;;;;;;;5023504;28;20091;-70
2022/04/13 10:55:19;;;;;;;12.75;7.20;;;;;;;;;;5025320;28;20072;-70
2022/04/13 10:57:58;;;;;;;14.27;7.22;;;;;;;;;;5018946;28;20086;-68
2022/04/13 11:00:26;;;;;;;13.70;7.53;;;;;;;;;;5022924;28;20063;-69
2022/04/13 11:02:52;;;;;;;11.40;6.22;;;;;;;;;;5021277;28;20048;-69
2022/04/13 11:05:18;;;;;;;14.77;6.53;;;;;;;;;;5025698;28;20124;-69
2022/04/13 11:07:44;;;;;;;13.32;7.05;;;;;;;;;;5025339;28;20132;-69
2022/04/13 11:10:16;;;;;;;12.25;6.00;;;;;;;;;;5025015;28;20140;-69
2022/04/13 11:12:42;;;;;;;12.05;5.82;;;;;;;;;;5035321;28;20042;-69
2022/04/13 11:15:08;;;;;;;12.73;6.40;;;;;;;;;;5016990;28;20246;-69
2022/04/13 11:17:40;;;;;;;13.98;6.20;;;;;;;;;;5034127;28;20057;-69
2022/04/13 11:20:19;;;;;;;11.10;5.60;;;;;;;;;;5035384;28;20045;-68
2022/04/13 11:22:46;;;;;;;14.25;5.68;;;;;;;;;;5034131;28;20443;-68
2022/04/13 11:25:32;;;;;;;8.85;4.72;;;;;;;;;;5034742;28;20056;-68
2022/04/13 11:27:57;;;;;;;12.32;4.70;;;;;;;;;;5034580;28;20484;-68
2022/04/13 11:30:24;;;;;;;14.20;6.00;;;;;;;;;;5017112;28;20084;-69
2022/04/13 11:32:50;;;;;;;14.57;6.63;;;;;;;;;;5017104;28;20072;-69
2022/04/13 11:35:26;;;;;;;12.80;5.90;;;;;;;;;;5025289;28;20079;-66
2022/04/13 11:38:05;;;;;;;20.95;6.05;;;;;;;;;;5008911;28;20056;-71
2022/04/13 11:40:31;;;;;;;18.00;5.90;;;;;;;;;;5031944;28;20108;-70
2022/04/13 11:43:04;;;;;;;12.52;5.22;;;;;;;;;;5015257;28;20049;-71
2022/04/13 11:45:30;;;;;;;22.98;7.07;;;;;;;;;;5025721;28;20492;-71
2022/04/13 11:47:58;;;;;;;18.83;7.30;;;;;;;;;;5034598;28;20435;-71
2022/04/13 11:50:25;;;;;;;21.75;6.68;;;;;;;;;;5032974;28;20042;-70
2022/04/13 11:52:52;;;;;;;17.60;5.63;;;;;;;;;;5034458;28;20083;-71
2022/04/13 11:55:24;;;;;;;16.83;5.82;;;;;;;;;;5016265;28;20049;-71
2022/04/13 11:58:09;;;;;;;12.70;4.97;;;;;;;;;;5014306;28;20058;-71
2022/04/13 12:00:37;;;;;;;14.07;5.13;;;;;;;;;;5029073;28;20084;-71
2022/04/13 12:03:06;;;;;;;21.38;5.43;;;;;;;;;;5016866;28;20034;-71
2022/04/13 12:05:32;;;;;;;17.13;5.00;;;;;;;;;;5024054;28;20079;-71
2022/04/13 12:07:59;;;;;;;19.23;5.30;;;;;;;;;;5035745;28;20037;-71
2022/04/13 12:10:25;;;;;;;20.27;5.28;;;;;;;;;;5019982;28;20128;-70
2022/04/13 12:12:52;;;;;;;17.10;5.18;;;;;;;;;;5018952;28;20046;-70
2022/04/13 12:15:19;;;;;;;17.20;5.30;;;;;;;;;;5030223;28;20396;-70
2022/04/13 12:17:45;;;;;;;17.52;5.00;;;;;;;;;;5033957;28;20500;-70
2022/04/13 12:20:27;;;;;;;20.35;5.07;;;;;;;;;;5033962;28;20048;-71
2022/04/13 12:22:53;;;;;;;17.27;4.95;;;;;;;;;;5015559;28;20042;-70
2022/04/13 12:25:20;;;;;;;18.55;5.20;;;;;;;;;;5033694;28;20045;-68
2022/04/13 12:28:05;;;;;;;15.15;4.70;;;;;;;;;;5015911;28;20096;-69
2022/04/13 12:30:31;;;;;;;14.73;4.53;;;;;;;;;;5031747;28;20077;-68
2022/04/13 12:32:57;;;;;;;15.10;4.53;;;;;;;;;;5028277;28;20064;-68
2022/04/13 12:35:23;;;;;;;14.95;4.55;;;;;;;;;;5023981;28;20411;-69
2022/04/13 12:37:53;;;;;;;16.02;4.80;;;;;;;;;;5021437;28;20489;-69
2022/04/13 12:40:20;;;;;;;19.30;4.55;;;;;;;;;;5032073;28;20041;-68
2022/04/13 12:42:46;;;;;;;11.15;4.10;;;;;;;;;;5023229;28;20095;-68
2022/04/13 12:45:12;;;;;;;16.35;4.35;;;;;;;;;;5007211;28;20045;-70
2022/04/13 12:47:56;;;;;;;15.90;4.43;;;;;;;;;;5033087;28;20056;-70
2022/04/13 12:50:22;;;;;;;12.75;4.43;;;;;;;;;;5014742;28;20045;-70
2022/04/13 12:53:02;;;;;;;11.18;4.47;;;;;;;;;;5018565;28;20037;-69
2022/04/13 12:55:28;;;;;;;10.98;3.78;;;;;;;;;;5032307;28;20485;-68
2022/04/13 12:57:57;;;;;;;13.07;4.13;;;;;;;;;;5014916;28;20060;-69
2022/04/13 13:00:42;;;;;;;17.17;4.40;;;;;;;;;;5030342;28;20042;-70
2022/04/13 13:03:08;;;;;;;11.27;3.33;;;;;;;;;;5008500;28;20049;-69
2022/04/13 13:05:34;;;;;;;11.05;3.47;;;;;;;;;;5028976;28;20053;-70
2022/04/13 13:08:04;;;;;;;10.23;3.42;;;;;;;;;;5029939;28;20045;-70
2022/04/13 13:10:33;;;;;;;12.18;4.75;;;;;;;;;;5014993;28;20068;-70
2022/04/13 13:13:13;;;;;;;10.85;4.07;;;;;;;;;;5032030;28;20504;-70
2022/04/13 13:15:39;;;;;;;9.75;3.85;;;;;;;;;;5033094;28;20100;-70
2022/04/13 13:18:06;;;;;;;8.93;3.60;;;;;;;;;;5045370;28;20049;-70
2022/04/13 13:20:33;;;;;;;8.52;3.45;;;;;;;;;;5042052;28;20034;-70
2022/04/13 13:22:59;;;;;;;9.00;3.70;;;;;;;;;;5033136;28;20045;-70
2022/04/13 13:25:25;;;;;;;9.85;3.42;;;;;;;;;;5031868;28;20070;-70
2022/04/13 13:27:54;;;;;;;7.47;3.20;;;;;;;;;;5027919;28;20128;-70
2022/04/13 13:30:21;;;;;;;9.85;3.42;;;;;;;;;;5015039;28;20424;-70
2022/04/13 13:32:48;;;;;;;8.55;3.03;;;;;;;;;;5032591;28;20049;-70
2022/04/13 13:35:15;;;;;;;10.73;3.30;;;;;;;;;;5012987;28;20041;-71
2022/04/13 13:37:42;;;;;;;9.40;3.00;;;;;;;;;;5018224;28;20103;-71
2022/04/13 13:40:27;;;;;;;8.80;3.08;;;;;;;;;;5003162;28;20072;-67
2022/04/13 13:42:53;;;;;;;8.95;3.15;;;;;;;;;;5017963;28;20065;-67
2022/04/13 13:45:19;;;;;;;8.10;3.00;;;;;;;;;;5017259;28;20080;-67
2022/04/13 13:47:45;;;;;;;11.25;3.50;;;;;;;;;;5031092;28;20103;-67
2022/04/13 13:50:12;;;;;;;7.60;3.70;;;;;;;;;;5027988;28;20049;-67
2022/04/13 13:52:38;;;;;;;7.35;3.20;;;;;;;;;;5029775;28;20492;-67
2022/04/13 13:55:05;;;;;;;7.85;3.53;;;;;;;;;;5026283;28;20049;-67
2022/04/13 13:57:31;;;;;;;10.50;3.40;;;;;;;;;;5027072;28;20411;-67
2022/04/13 13:59:57;;;;;;;6.25;3.30;;;;;;;;;;5032783;28;20128;-68
2022/04/13 14:02:23;;;;;;;8.00;3.10;;;;;;;;;;5032119;28;20046;-67
2022/04/13 14:04:49;;;;;;;8.55;3.17;;;;;;;;;;5031519;28;20044;-67
2022/04/13 14:07:16;;;;;;;7.93;2.92;;;;;;;;;;5018828;28;20037;-67
2022/04/13 14:09:43;;;;;;;7.97;3.30;;;;;;;;;;5015245;28;20163;-67
2022/04/13 14:12:10;;;;;;;8.38;2.95;;;;;;;;;;5022333;28;20049;-67
2022/04/13 14:14:36;;;;;;;6.70;3.03;;;;;;;;;;5031080;28;20559;-67
2022/04/13 14:17:02;;;;;;;11.63;3.20;;;;;;;;;;5031229;28;20124;-67
2022/04/13 14:19:33;;;;;;;5.95;2.72;;;;;;;;;;5031645;28;20152;-67
2022/04/13 14:21:59;;;;;;;7.30;2.63;;;;;;;;;;5026445;28;20117;-67
2022/04/13 14:24:25;;;;;;;9.40;3.33;;;;;;;;;;5025399;28;20196;-67
2022/04/13 14:26:51;;;;;;;7.15;3.10;;;;;;;;;;5021965;28;20124;-67
2022/04/13 14:29:17;;;;;;;8.32;3.40;;;;;;;;;;5034040;28;20041;-67
2022/04/13 14:31:44;;;;;;;7.18;3.30;;;;;;;;;;5018353;28;20053;-67
2022/04/13 14:34:10;;;;;;;5.18;2.72;;;;;;;;;;5031973;28;20053;-67
2022/04/13 14:36:37;;;;;;;9.50;3.20;;;;;;;;;;5023074;28;20041;-67